Time;durP1;ratioP1;P1;durP2;ratioP2;P2;SDS_P1;SDS_P2;PMS_P1;PMS_P2;Temp;Humidity;BMP_temperature;BMP_pressure;BME280_temperature;BME280_humidity;BME280_pressure;Samples;Min_cycle;Max_cycle;Signal;HPM_P1;HPM_P2
2022/05/25 00:01:26;;;;;;;12.75;11.43;;;9.40;99.90;;;;;;5065161;28;20041;-47
2022/05/25 00:03:52;;;;;;;12.98;11.55;;;9.40;99.90;;;;;;5065008;28;20840;-47
2022/05/25 00:06:18;;;;;;;13.73;11.55;;;9.40;99.90;;;;;;5060871;28;20095;-51
2022/05/25 00:08:44;;;;;;;15.15;11.63;;;9.40;99.90;;;;;;5063886;28;20080;-45
2022/05/25 00:11:10;;;;;;;13.15;11.85;;;9.30;99.90;;;;;;5061487;28;20056;-48
2022/05/25 00:13:36;;;;;;;13.10;11.40;;;9.30;99.90;;;;;;5061981;28;20399;-44
2022/05/25 00:16:06;;;;;;;16.15;12.82;;;9.40;99.90;;;;;;5066251;28;20239;-45
2022/05/25 00:18:32;;;;;;;13.35;11.98;;;9.30;99.90;;;;;;5045836;28;20052;-45
2022/05/25 00:20:58;;;;;;;13.38;11.45;;;9.30;99.90;;;;;;5064082;28;20097;-44
2022/05/25 00:23:24;;;;;;;15.20;11.82;;;9.30;99.90;;;;;;5058287;28;20566;-46
2022/05/25 00:25:50;;;;;;;12.85;11.65;;;9.30;99.90;;;;;;5043911;28;20056;-48
2022/05/25 00:28:16;;;;;;;14.75;11.57;;;9.30;99.90;;;;;;5068260;28;20048;-47
2022/05/25 00:30:44;;;;;;;13.13;11.93;;;9.30;99.90;;;;;;5029846;28;20582;-47
2022/05/25 00:33:11;;;;;;;12.95;11.73;;;9.30;99.90;;;;;;5041847;28;20055;-47
2022/05/25 00:35:38;;;;;;;13.82;12.43;;;9.30;99.90;;;;;;5052694;28;20080;-44
2022/05/25 00:38:05;;;;;;;13.93;12.40;;;9.20;99.90;;;;;;5062569;28;20584;-43
2022/05/25 00:40:40;;;;;;;13.98;12.68;;;9.30;99.90;;;;;;5064037;28;20052;-46
2022/05/25 00:43:07;;;;;;;14.57;12.10;;;9.20;99.90;;;;;;5062065;28;20051;-44
2022/05/25 00:45:43;;;;;;;12.68;11.38;;;9.20;99.90;;;;;;5060726;28;20558;-45
2022/05/25 00:48:24;;;;;;;13.43;12.05;;;9.20;99.90;;;;;;5062971;28;20051;-48
2022/05/25 00:53:36;;;;;;;13.57;12.18;;;9.20;99.90;;;;;;5061460;28;20553;-47
2022/05/25 00:56:04;;;;;;;14.80;11.55;;;9.10;99.90;;;;;;5061508;28;20493;-46
2022/05/25 00:58:29;;;;;;;14.73;13.23;;;9.10;99.90;;;;;;5030655;28;20590;-46
2022/05/25 01:00:55;;;;;;;13.55;12.30;;;9.10;99.90;;;;;;5063360;28;20056;-45
2022/05/25 01:03:21;;;;;;;13.25;11.88;;;9.00;99.90;;;;;;5043259;28;20063;-44
2022/05/25 01:05:58;;;;;;;14.73;13.20;;;9.10;99.90;;;;;;5060335;28;20467;-45
2022/05/25 01:08:37;;;;;;;14.05;12.60;;;9.00;99.90;;;;;;5052047;28;20088;-46
2022/05/25 01:11:23;;;;;;;13.57;12.18;;;9.00;99.90;;;;;;5040126;28;20048;-44
2022/05/25 01:14:09;;;;;;;18.05;14.48;;;9.00;99.90;;;;;;5044322;28;20087;-45
2022/05/25 01:16:56;;;;;;;15.15;13.52;;;9.00;99.90;;;;;;5063902;28;20510;-46
2022/05/25 01:19:37;;;;;;;14.80;12.85;;;9.00;99.90;;;;;;5040251;28;20118;-47
2022/05/25 01:22:14;;;;;;;16.08;13.57;;;9.00;99.90;;;;;;5064322;28;20057;-45
2022/05/25 01:25:07;;;;;;;16.92;14.32;;;9.00;99.90;;;;;;5047376;28;20129;-46
2022/05/25 01:27:43;;;;;;;15.60;14.05;;;9.00;99.90;;;;;;5062095;28;20222;-46
2022/05/25 01:30:19;;;;;;;16.85;14.88;;;9.00;99.90;;;;;;5042887;28;20048;-45
2022/05/25 01:33:23;;;;;;;16.95;15.02;;;9.00;99.90;;;;;;5062453;28;20048;-45
2022/05/25 01:35:53;;;;;;;17.05;14.45;;;9.00;99.90;;;;;;5038269;28;20455;-45
2022/05/25 01:38:27;;;;;;;18.45;14.85;;;9.00;99.90;;;;;;5052508;28;20118;-45
2022/05/25 01:41:03;;;;;;;18.92;15.52;;;9.00;99.90;;;;;;5049419;28;20143;-45
2022/05/25 01:44:06;;;;;;;19.65;15.30;;;9.00;99.90;;;;;;5062378;28;20123;-45
2022/05/25 01:46:38;;;;;;;16.92;15.23;;;9.00;99.90;;;;;;5060912;28;20511;-46
2022/05/25 01:49:08;;;;;;;19.60;15.02;;;9.00;99.90;;;;;;5075139;28;20047;-46
2022/05/25 01:52:02;;;;;;;19.83;15.60;;;8.90;99.90;;;;;;5080861;28;20051;-48
2022/05/25 01:54:32;;;;;;;18.95;16.80;;;8.90;99.90;;;;;;5032091;28;20585;-46
2022/05/25 01:57:06;;;;;;;27.95;16.77;;;8.80;99.90;;;;;;5083105;28;20044;-44
2022/05/25 01:59:32;;;;;;;21.45;16.42;;;8.80;99.90;;;;;;5079816;28;20089;-43
2022/05/25 02:04:52;;;;;;;21.35;16.42;;;8.90;99.90;;;;;;5048846;28;20052;-46
2022/05/25 02:07:45;;;;;;;22.25;17.05;;;8.90;99.90;;;;;;5061966;28;20044;-45
2022/05/25 02:10:30;;;;;;;18.88;16.85;;;8.80;99.90;;;;;;5056522;28;20057;-46
2022/05/25 02:13:19;;;;;;;22.30;16.88;;;8.80;99.90;;;;;;5061707;28;20059;-45
2022/05/25 02:16:40;;;;;;;20.45;18.10;;;8.80;99.90;;;;;;5044161;28;20412;-46
2022/05/25 02:19:17;;;;;;;21.65;17.92;;;8.80;99.90;;;;;;4954430;28;20062;-46
2022/05/25 02:21:48;;;;;;;25.13;19.00;;;8.80;99.90;;;;;;4959689;28;20553;-47
2022/05/25 02:24:34;;;;;;;24.65;18.90;;;8.90;99.90;;;;;;4959354;28;20062;-46
2022/05/25 02:27:24;;;;;;;23.92;18.92;;;8.80;99.90;;;;;;4961520;28;20062;-45
2022/05/25 02:29:52;;;;;;;24.88;19.05;;;8.80;99.90;;;;;;4966107;28;20126;-45
2022/05/25 02:32:48;;;;;;;22.77;18.45;;;8.70;99.90;;;;;;4980484;28;20097;-45
2022/05/25 02:35:16;;;;;;;23.40;18.67;;;8.70;99.90;;;;;;4943324;28;20137;-47
2022/05/25 02:37:43;;;;;;;26.85;19.77;;;8.70;99.90;;;;;;4970318;28;20129;-48
2022/05/25 02:40:10;;;;;;;28.58;20.23;;;8.70;99.90;;;;;;4966492;28;20061;-49
2022/05/25 02:42:41;;;;;;;26.33;19.90;;;8.70;99.90;;;;;;4950098;28;20065;-43
2022/05/25 02:45:08;;;;;;;26.45;20.42;;;8.70;99.90;;;;;;4949157;28;20051;-45
2022/05/25 02:47:34;;;;;;;24.52;19.50;;;8.70;99.90;;;;;;4970923;28;20062;-45
2022/05/25 02:50:00;;;;;;;28.25;21.55;;;8.70;99.90;;;;;;4952541;28;20190;-48
2022/05/25 02:52:25;;;;;;;27.90;22.13;;;8.70;99.90;;;;;;4964839;28;20050;-44
2022/05/25 02:54:51;;;;;;;28.55;21.65;;;8.70;99.90;;;;;;4991199;28;20095;-45
2022/05/25 02:57:17;;;;;;;25.38;21.15;;;8.70;99.90;;;;;;5023875;28;20601;-45
2022/05/25 02:59:48;;;;;;;29.10;21.58;;;8.70;99.90;;;;;;5041224;28;20423;-45
2022/05/25 03:02:14;;;;;;;27.73;22.67;;;8.70;99.90;;;;;;5027594;28;20066;-44
2022/05/25 03:04:40;;;;;;;29.77;23.40;;;8.70;99.90;;;;;;5038067;28;20064;-47
2022/05/25 03:07:07;;;;;;;28.77;23.95;;;8.70;99.90;;;;;;5040115;28;20064;-45
2022/05/25 03:09:35;;;;;;;29.88;23.63;;;8.70;99.90;;;;;;5023568;28;20053;-45
2022/05/25 03:12:02;;;;;;;29.58;23.08;;;8.70;99.90;;;;;;5027945;28;20057;-44
2022/05/25 03:14:29;;;;;;;30.50;24.85;;;8.70;99.90;;;;;;5038467;28;20060;-44
2022/05/25 03:16:55;;;;;;;32.08;24.33;;;8.80;99.90;;;;;;5039281;28;20053;-47
2022/05/25 03:19:21;;;;;;;33.60;24.70;;;8.80;99.90;;;;;;5042875;28;20074;-45
2022/05/25 03:21:46;;;;;;;30.80;25.67;;;8.80;99.90;;;;;;5044221;28;20076;-45
2022/05/25 03:24:13;;;;;;;28.63;25.52;;;8.90;99.90;;;;;;5041979;28;20434;-44
2022/05/25 03:26:40;;;;;;;32.42;25.45;;;8.90;99.90;;;;;;5043313;28;20086;-45
2022/05/25 03:29:06;;;;;;;28.52;24.13;;;8.90;99.90;;;;;;5024058;28;20119;-45
2022/05/25 03:31:32;;;;;;;31.25;24.58;;;8.90;99.90;;;;;;5037426;28;20411;-45
2022/05/25 03:33:58;;;;;;;29.55;24.27;;;8.90;99.90;;;;;;5043346;28;20114;-43
2022/05/25 03:36:24;;;;;;;31.70;24.80;;;8.90;99.90;;;;;;5042992;28;20045;-44
2022/05/25 03:38:49;;;;;;;28.55;24.55;;;9.00;99.90;;;;;;5044815;28;20044;-46
2022/05/25 03:41:18;;;;;;;29.52;24.38;;;8.90;99.90;;;;;;5044188;28;20053;-45
2022/05/25 03:43:45;;;;;;;30.40;23.80;;;8.90;99.90;;;;;;5044173;28;20116;-45
2022/05/25 03:46:11;;;;;;;27.23;23.77;;;9.00;99.90;;;;;;5044298;28;20059;-46
2022/05/25 03:48:37;;;;;;;27.20;23.33;;;9.00;99.90;;;;;;5025195;28;20061;-47
2022/05/25 03:51:03;;;;;;;29.52;25.08;;;9.00;99.90;;;;;;5048481;28;20091;-44
2022/05/25 03:53:29;;;;;;;29.00;23.23;;;9.10;99.90;;;;;;5044341;28;20072;-48
2022/05/25 03:55:54;;;;;;;26.25;22.42;;;9.10;99.90;;;;;;5043263;28;20148;-49
2022/05/25 03:58:20;;;;;;;29.90;23.40;;;9.10;99.90;;;;;;5041913;28;20138;-48
2022/05/25 04:00:46;;;;;;;27.00;22.58;;;9.10;99.90;;;;;;5013668;28;20049;-45
2022/05/25 04:03:14;;;;;;;25.50;21.85;;;9.20;99.90;;;;;;5043034;28;20048;-47
2022/05/25 04:05:41;;;;;;;26.13;22.02;;;9.20;99.90;;;;;;5040656;28;20040;-46
2022/05/25 04:08:07;;;;;;;24.33;21.23;;;9.30;99.90;;;;;;5042460;28;20484;-45
2022/05/25 04:10:35;;;;;;;27.83;21.77;;;9.30;99.90;;;;;;5043817;28;20135;-44
2022/05/25 04:13:01;;;;;;;25.10;21.30;;;9.40;99.90;;;;;;5042963;28;20541;-46
2022/05/25 04:15:30;;;;;;;23.58;21.25;;;9.60;99.90;;;;;;5051792;28;20060;-45
2022/05/25 04:17:55;;;;;;;23.92;20.67;;;10.10;99.90;;;;;;5059554;28;20075;-46
2022/05/25 04:20:23;;;;;;;23.42;18.92;;;10.90;99.90;;;;;;5046782;28;20131;-46
2022/05/25 04:22:50;;;;;;;19.45;16.88;;;11.70;99.90;;;;;;5059059;28;20040;-44
2022/05/25 04:25:18;;;;;;;18.05;16.27;;;12.30;99.90;;;;;;5032183;28;20063;-46
2022/05/25 04:27:46;;;;;;;16.90;15.23;;;12.90;99.90;;;;;;5059004;28;20393;-45
2022/05/25 04:30:15;;;;;;;18.55;15.75;;;13.50;99.90;;;;;;5049518;28;20049;-45
2022/05/25 04:32:41;;;;;;;15.65;14.15;;;14.00;99.90;;;;;;5039263;28;20416;-45
2022/05/25 04:35:08;;;;;;;15.75;14.18;;;14.50;99.90;;;;;;5059677;28;20052;-45
2022/05/25 04:37:48;;;;;;;14.45;13.23;;;14.90;99.90;;;;;;5062321;28;20056;-46
2022/05/25 04:40:17;;;;;;;13.57;12.27;;;15.30;99.90;;;;;;5045144;28;20049;-46
2022/05/25 04:42:45;;;;;;;15.20;13.13;;;15.90;99.90;;;;;;5043607;28;20115;-46
2022/05/25 04:45:11;;;;;;;14.40;13.10;;;16.30;99.90;;;;;;5032451;28;20535;-44
2022/05/25 04:47:37;;;;;;;13.23;12.02;;;16.60;99.90;;;;;;5054292;28;20040;-45
2022/05/25 04:50:09;;;;;;;13.90;12.50;;;16.90;99.90;;;;;;5052362;28;20114;-44
2022/05/25 04:52:36;;;;;;;12.97;11.67;;;17.40;99.90;;;;;;5031122;28;20143;-48
2022/05/25 04:55:06;;;;;;;12.82;11.70;;;17.70;99.90;;;;;;5052216;28;20115;-46
2022/05/25 04:57:32;;;;;;;12.27;11.20;;;17.90;99.90;;;;;;5032580;28;20475;-44
2022/05/25 05:00:01;;;;;;;11.82;10.82;;;18.30;99.90;;;;;;5054175;28;20037;-45
2022/05/25 05:02:28;;;;;;;11.90;10.90;;;18.50;99.90;;;;;;5062660;28;20063;-46
2022/05/25 05:04:56;;;;;;;10.98;9.88;;;18.90;99.90;;;;;;5019337;28;20102;-45
2022/05/25 05:07:33;;;;;;;11.13;10.02;;;19.40;99.90;;;;;;5056957;28;20041;-46
2022/05/25 05:10:03;;;;;;;10.85;9.75;;;19.80;99.90;;;;;;5048017;28;20059;-48
2022/05/25 05:12:30;;;;;;;11.18;9.45;;;19.80;99.90;;;;;;5046536;28;20046;-48
2022/05/25 05:14:59;;;;;;;11.13;9.50;;;20.20;99.90;;;;;;5051988;28;20159;-46
2022/05/25 05:17:25;;;;;;;10.65;9.65;;;20.20;99.90;;;;;;5038991;28;20060;-47
2022/05/25 05:19:51;;;;;;;12.52;9.95;;;20.40;99.90;;;;;;5018600;28;20061;-45
2022/05/25 05:22:17;;;;;;;11.23;10.10;;;20.20;99.90;;;;;;5057972;28;20051;-44
2022/05/25 05:24:43;;;;;;;10.23;9.23;;;20.30;99.90;;;;;;5054130;28;20059;-45
2022/05/25 05:27:09;;;;;;;10.88;9.77;;;20.60;99.90;;;;;;5059399;28;20118;-47
2022/05/25 05:29:35;;;;;;;12.10;9.48;;;20.70;99.90;;;;;;5050377;28;20044;-45
2022/05/25 05:32:01;;;;;;;10.82;9.77;;;20.90;99.90;;;;;;5057140;28;20052;-44
2022/05/25 05:34:30;;;;;;;10.98;9.85;;;21.20;99.90;;;;;;5053894;28;20536;-46
2022/05/25 05:37:23;;;;;;;10.52;9.63;;;21.30;99.90;;;;;;5061716;28;20550;-47
2022/05/25 05:39:54;;;;;;;14.57;9.63;;;21.40;99.90;;;;;;5051201;28;20052;-44
2022/05/25 05:42:22;;;;;;;10.77;9.70;;;21.60;99.90;;;;;;5049390;28;20181;-46
2022/05/25 05:45:09;;;;;;;10.63;9.68;;;21.50;99.90;;;;;;5016965;28;20045;-45
2022/05/25 05:47:42;;;;;;;9.65;8.85;;;21.90;99.90;;;;;;5036489;28;20057;-46
2022/05/25 05:50:08;;;;;;;12.05;10.60;;;21.90;99.90;;;;;;5026131;28;20061;-45
2022/05/25 05:52:35;;;;;;;10.15;9.15;;;21.90;99.90;;;;;;5027623;28;20052;-46
2022/05/25 05:55:03;;;;;;;10.43;8.93;;;22.20;99.90;;;;;;5047087;28;20060;-50
2022/05/25 05:57:29;;;;;;;10.55;9.55;;;22.30;99.90;;;;;;5050331;28;20044;-46
2022/05/25 05:59:54;;;;;;;14.30;9.50;;;22.60;99.90;;;;;;5055692;28;20059;-48
2022/05/25 06:02:20;;;;;;;11.35;10.35;;;22.80;99.90;;;;;;5049602;28;20088;-47
2022/05/25 06:04:46;;;;;;;9.93;9.02;;;23.10;99.90;;;;;;5046118;28;20645;-43
2022/05/25 06:07:12;;;;;;;11.18;10.05;;;23.10;99.90;;;;;;5055708;28;20045;-49
2022/05/25 06:09:37;;;;;;;12.65;9.82;;;23.10;99.90;;;;;;5055143;28;20486;-46
2022/05/25 06:12:04;;;;;;;9.60;8.73;;;23.50;99.90;;;;;;5041522;28;20041;-44
2022/05/25 06:14:29;;;;;;;11.90;9.85;;;23.60;99.30;;;;;;5041851;28;20040;-50
2022/05/25 06:19:39;;;;;;;11.40;9.13;;;23.70;99.10;;;;;;5041618;28;20509;-45
2022/05/25 06:22:12;;;;;;;9.63;8.73;;;24.10;98.70;;;;;;5042900;28;20044;-46
2022/05/25 06:24:49;;;;;;;10.73;8.57;;;24.00;98.90;;;;;;5036762;28;20049;-49
2022/05/25 06:27:16;;;;;;;9.93;8.93;;;24.20;98.60;;;;;;5039410;28;20055;-47
2022/05/25 06:29:46;;;;;;;12.32;9.88;;;24.30;98.70;;;;;;5039233;28;20137;-47
2022/05/25 06:32:14;;;;;;;10.82;9.73;;;24.10;98.70;;;;;;5038898;28;20383;-46
2022/05/25 06:34:41;;;;;;;10.38;9.13;;;23.90;98.70;;;;;;5038758;28;20044;-46
2022/05/25 06:37:12;;;;;;;14.07;9.18;;;23.90;98.70;;;;;;5038931;28;20049;-47
2022/05/25 06:39:37;;;;;;;10.38;8.40;;;23.60;98.90;;;;;;5038547;28;20049;-44
2022/05/25 06:42:05;;;;;;;9.90;8.40;;;23.40;99.60;;;;;;5019003;28;20414;-46
2022/05/25 06:44:31;;;;;;;10.93;8.98;;;23.80;99.70;;;;;;5037898;28;20498;-46
2022/05/25 06:46:57;;;;;;;12.52;10.57;;;23.80;99.10;;;;;;5041446;28;20462;-45
2022/05/25 06:49:23;;;;;;;11.23;10.23;;;23.70;99.10;;;;;;5040539;28;20099;-45
2022/05/25 06:51:48;;;;;;;11.95;10.25;;;23.30;99.30;;;;;;5040470;28;20304;-46
2022/05/25 06:54:16;;;;;;;11.65;10.45;;;22.50;99.90;;;;;;5042292;28;20148;-46
2022/05/25 06:56:42;;;;;;;23.63;12.48;;;21.70;99.90;;;;;;5023560;28;20077;-46
2022/05/25 06:59:08;;;;;;;12.88;10.43;;;21.10;99.90;;;;;;5024532;28;20423;-47
2022/05/25 07:01:36;;;;;;;11.88;10.52;;;21.50;99.90;;;;;;5042568;28;20444;-45
2022/05/25 07:04:02;;;;;;;12.95;10.20;;;21.70;99.90;;;;;;5041176;28;20439;-45
2022/05/25 07:06:28;;;;;;;11.90;10.75;;;21.90;99.90;;;;;;5024459;28;20102;-46
2022/05/25 07:08:55;;;;;;;12.68;11.48;;;22.00;99.90;;;;;;5022791;28;20060;-47
2022/05/25 07:11:23;;;;;;;12.48;10.60;;;22.00;99.90;;;;;;5041792;28;20396;-46
2022/05/25 07:13:50;;;;;;;13.43;10.75;;;22.40;99.90;;;;;;5020842;28;20087;-49
2022/05/25 07:16:18;;;;;;;10.48;9.43;;;22.20;99.90;;;;;;5041674;28;20061;-45
2022/05/25 07:18:45;;;;;;;11.32;9.25;;;21.80;99.90;;;;;;5043732;28;20071;-49
2022/05/25 07:21:16;;;;;;;11.75;10.23;;;21.30;99.90;;;;;;5044806;28;20087;-46
2022/05/25 07:23:44;;;;;;;10.73;9.80;;;20.50;99.90;;;;;;5040813;28;20045;-46
2022/05/25 07:26:11;;;;;;;10.73;9.68;;;20.10;99.90;;;;;;5042487;28;20419;-48
2022/05/25 07:28:37;;;;;;;13.02;9.82;;;19.70;99.90;;;;;;5042481;28;20047;-45
2022/05/25 07:31:07;;;;;;;9.02;8.18;;;19.30;99.90;;;;;;5044678;28;20037;-46
2022/05/25 07:33:35;;;;;;;11.20;8.70;;;18.90;99.90;;;;;;5043575;28;20055;-46
2022/05/25 07:36:02;;;;;;;8.65;7.85;;;18.60;99.90;;;;;;5042370;28;20056;-46
2022/05/25 07:38:29;;;;;;;11.52;9.05;;;18.50;99.90;;;;;;5047777;28;20087;-49
2022/05/25 07:40:56;;;;;;;13.07;7.20;;;18.90;99.90;;;;;;5044590;28;20213;-48
2022/05/25 07:43:24;;;;;;;7.63;6.70;;;19.30;99.90;;;;;;5016620;28;20049;-46
2022/05/25 07:45:50;;;;;;;12.75;6.03;;;19.60;99.90;;;;;;5019759;28;20126;-45
2022/05/25 07:48:16;;;;;;;8.40;5.90;;;19.50;99.90;;;;;;5043001;28;20494;-47
2022/05/25 07:50:43;;;;;;;8.40;5.78;;;19.60;99.90;;;;;;5044851;28;20049;-46
2022/05/25 07:55:59;;;;;;;6.90;5.07;;;20.10;99.90;;;;;;5042625;28;20133;-46
2022/05/25 07:58:25;;;;;;;7.97;5.13;;;20.10;99.90;;;;;;5040449;28;20059;-47
2022/05/25 08:00:54;;;;;;;7.43;5.18;;;19.80;99.90;;;;;;5041079;28;20053;-45
2022/05/25 08:06:10;;;;;;;8.68;5.10;;;20.00;99.90;;;;;;5041870;28;20052;-45
2022/05/25 08:08:36;;;;;;;10.13;5.35;;;20.10;99.90;;;;;;5042266;28;20076;-46
2022/05/25 08:11:10;;;;;;;6.85;4.75;;;20.00;99.90;;;;;;5041611;28;20080;-47
2022/05/25 08:13:39;;;;;;;9.05;5.55;;;20.20;99.90;;;;;;5042705;28;20049;-45
2022/05/25 08:16:05;;;;;;;8.35;4.53;;;20.20;99.90;;;;;;5041783;28;20079;-45
2022/05/25 08:18:31;;;;;;;6.75;4.80;;;19.80;99.90;;;;;;5042191;28;20053;-46
2022/05/25 08:20:57;;;;;;;6.75;5.28;;;19.90;99.90;;;;;;5042997;28;20045;-46
2022/05/25 08:23:23;;;;;;;9.85;4.65;;;20.00;99.90;;;;;;5042676;28;20056;-45
2022/05/25 08:25:49;;;;;;;5.25;4.20;;;19.80;99.90;;;;;;5040202;28;20531;-46
2022/05/25 08:28:14;;;;;;;8.75;5.25;;;19.70;99.90;;;;;;5041889;28;20037;-45
2022/05/25 08:30:42;;;;;;;9.68;5.47;;;19.40;99.90;;;;;;5042235;28;20102;-46
2022/05/25 08:33:09;;;;;;;8.43;5.22;;;19.20;99.90;;;;;;5042314;28;20053;-47
2022/05/25 08:35:35;;;;;;;8.90;5.10;;;19.70;99.90;;;;;;5043285;28;20465;-47
2022/05/25 08:38:01;;;;;;;7.70;5.32;;;19.90;99.90;;;;;;5043447;28;20520;-46
2022/05/25 08:40:29;;;;;;;8.52;5.45;;;19.60;99.90;;;;;;5040353;28;20130;-46
2022/05/25 08:43:08;;;;;;;6.80;4.78;;;19.40;99.90;;;;;;5040660;28;20151;-45
2022/05/25 08:45:44;;;;;;;7.70;5.03;;;19.30;99.90;;;;;;5042381;28;20045;-45
2022/05/25 08:48:13;;;;;;;8.35;5.57;;;19.30;99.90;;;;;;5042763;28;20045;-47
2022/05/25 08:50:41;;;;;;;7.57;5.18;;;19.40;99.90;;;;;;5040042;28;20052;-47
2022/05/25 08:53:13;;;;;;;5.80;5.20;;;18.90;99.90;;;;;;5042624;28;20395;-46
2022/05/25 08:55:58;;;;;;;9.13;7.20;;;19.10;99.90;;;;;;5022557;28;20060;-46
2022/05/25 08:58:33;;;;;;;8.90;7.25;;;19.40;99.90;;;;;;5044161;28;20053;-46
2022/05/25 09:01:03;;;;;;;10.48;6.75;;;19.60;99.90;;;;;;5032353;28;20049;-52
2022/05/25 09:04:03;;;;;;;12.68;8.15;;;19.80;99.90;;;;;;5024570;28;20084;-46
2022/05/25 09:06:57;;;;;;;12.65;8.70;;;19.70;99.90;;;;;;4941082;28;20095;-46
2022/05/25 09:09:36;;;;;;;11.20;6.60;;;19.70;99.90;;;;;;4944597;28;20054;-46
2022/05/25 09:12:12;;;;;;;11.13;7.07;;;19.80;99.90;;;;;;4955145;28;20145;-45
2022/05/25 09:14:46;;;;;;;9.70;7.05;;;19.80;99.90;;;;;;4934309;28;20577;-48
2022/05/25 09:17:20;;;;;;;9.02;8.07;;;20.00;99.90;;;;;;4940323;28;20066;-46
2022/05/25 09:19:47;;;;;;;8.73;7.20;;;19.90;99.90;;;;;;4937948;28;20149;-47
2022/05/25 09:22:19;;;;;;;7.07;6.10;;;20.10;99.90;;;;;;4953072;28;20062;-45
2022/05/25 09:24:48;;;;;;;9.98;6.50;;;19.80;99.90;;;;;;4930429;28;20086;-46
2022/05/25 09:27:16;;;;;;;11.35;6.88;;;19.70;99.90;;;;;;4931607;28;20054;-45
2022/05/25 09:29:44;;;;;;;10.45;7.28;;;19.90;99.90;;;;;;4947465;28;20055;-45
2022/05/25 09:32:39;;;;;;;8.82;5.63;;;19.90;99.90;;;;;;4961322;28;20153;-47
2022/05/25 09:35:29;;;;;;;12.68;6.75;;;19.90;99.90;;;;;;4940981;28;20573;-47
2022/05/25 09:38:03;;;;;;;9.80;6.38;;;19.70;99.90;;;;;;4936686;28;20442;-46
2022/05/25 09:40:38;;;;;;;6.05;5.43;;;19.80;99.90;;;;;;4943781;28;20057;-44
2022/05/25 09:43:08;;;;;;;7.55;6.20;;;19.40;99.90;;;;;;5009048;28;20141;-46
2022/05/25 09:45:47;;;;;;;9.00;6.57;;;19.00;99.90;;;;;;5039159;28;20099;-46
2022/05/25 09:48:36;;;;;;;7.60;6.90;;;18.90;99.90;;;;;;5017355;28;20072;-49
2022/05/25 09:51:02;;;;;;;8.95;7.18;;;18.70;99.90;;;;;;5043800;28;20053;-48
2022/05/25 09:53:48;;;;;;;10.60;7.60;;;18.60;99.90;;;;;;5044342;28;20071;-44
2022/05/25 09:56:31;;;;;;;8.80;7.10;;;18.60;99.90;;;;;;5044506;28;20100;-45
2022/05/25 09:59:06;;;;;;;8.15;6.70;;;18.60;99.90;;;;;;5041206;28;20055;-47
2022/05/25 10:01:43;;;;;;;7.97;6.70;;;18.80;99.90;;;;;;5016920;28;20237;-44
2022/05/25 10:04:14;;;;;;;6.88;6.10;;;19.20;99.90;;;;;;5040341;28;20037;-47
2022/05/25 10:06:52;;;;;;;9.38;7.18;;;19.70;99.90;;;;;;5040680;28;20119;-44
2022/05/25 10:09:28;;;;;;;10.45;7.05;;;20.00;99.90;;;;;;5024441;28;20052;-46
2022/05/25 10:11:57;;;;;;;8.82;7.38;;;19.90;99.90;;;;;;5041066;28;20102;-45
2022/05/25 10:14:39;;;;;;;9.15;8.35;;;19.70;99.90;;;;;;5040029;28;20040;-47
2022/05/25 10:17:09;;;;;;;7.68;6.97;;;19.40;99.90;;;;;;5030671;28;20065;-45
2022/05/25 10:19:49;;;;;;;12.65;8.77;;;19.00;99.90;;;;;;5041223;28;20045;-44
2022/05/25 10:22:44;;;;;;;10.25;9.18;;;18.70;99.90;;;;;;5036978;28;20640;-45
2022/05/25 10:25:26;;;;;;;9.57;8.52;;;18.80;99.90;;;;;;5040829;28;20060;-45
2022/05/25 10:27:53;;;;;;;8.88;7.95;;;18.70;99.90;;;;;;5039986;28;20040;-44
2022/05/25 10:37:06;;;;;;;10.32;7.25;;;19.10;99.90;;;;;;4943662;28;20187;-45
2022/05/25 10:39:48;;;;;;;9.43;7.53;;;19.00;99.90;;;;;;4877988;29;20056;-45
2022/05/25 10:42:16;;;;;;;12.48;8.23;;;19.00;99.90;;;;;;4878483;29;20044;-47
2022/05/25 10:44:51;;;;;;;10.85;8.70;;;19.00;99.90;;;;;;4871637;29;20088;-47
2022/05/25 10:47:47;;;;;;;9.55;8.65;;;19.10;99.90;;;;;;4883514;29;20060;-44
2022/05/25 10:50:43;;;;;;;16.30;9.75;;;19.00;99.90;;;;;;4879489;29;20108;-47
2022/05/25 10:53:28;;;;;;;12.73;10.50;;;18.80;99.90;;;;;;4838376;29;20050;-46
2022/05/25 10:56:20;;;;;;;12.85;10.23;;;19.00;99.90;;;;;;4838752;29;20062;-45
2022/05/25 10:59:12;;;;;;;12.98;10.15;;;19.00;99.90;;;;;;4813658;29;20102;-44
2022/05/25 11:02:03;;;;;;;11.95;7.88;;;19.30;99.90;;;;;;4829952;29;20053;-46
2022/05/25 11:04:36;;;;;;;13.00;7.82;;;19.40;99.90;;;;;;4826178;29;20058;-46
2022/05/25 11:07:09;;;;;;;10.63;6.60;;;19.50;99.90;;;;;;4813404;29;20081;-46
2022/05/25 11:10:08;;;;;;;9.02;5.55;;;19.70;99.90;;;;;;4822510;29;20065;-45
2022/05/25 11:12:58;;;;;;;9.13;5.35;;;19.80;99.90;;;;;;4858517;29;20076;-45
2022/05/25 11:15:43;;;;;;;5.28;3.10;;;19.90;99.90;;;;;;4877912;29;20080;-47
2022/05/25 11:18:47;;;;;;;8.07;2.75;;;19.60;99.90;;;;;;4967838;28;20565;-45
2022/05/25 11:21:29;;;;;;;5.18;1.80;;;19.40;99.90;;;;;;4972177;28;20473;-45
2022/05/25 11:24:14;;;;;;;5.88;1.27;;;19.00;99.90;;;;;;4943565;28;20501;-47
2022/05/25 11:27:16;;;;;;;14.60;1.27;;;19.10;99.90;;;;;;4955651;28;20054;-46
2022/05/25 11:30:02;;;;;;;8.68;1.40;;;19.10;99.90;;;;;;4975732;28;20053;-43
2022/05/25 11:32:39;;;;;;;7.32;1.00;;;19.20;99.60;;;;;;5020860;28;20060;-44
2022/05/25 11:35:44;;;;;;;3.13;1.38;;;19.30;99.90;;;;;;5016553;28;20085;-45
2022/05/25 11:38:25;;;;;;;6.68;1.42;;;19.40;99.60;;;;;;5014107;28;20084;-45
2022/05/25 11:41:12;;;;;;;5.90;1.10;;;19.50;99.30;;;;;;5024370;28;20579;-44
2022/05/25 11:43:57;;;;;;;7.63;1.13;;;19.60;98.80;;;;;;5024651;28;20045;-44
2022/05/25 11:46:43;;;;;;;4.55;1.23;;;19.50;99.00;;;;;;5025128;28;20045;-44
2022/05/25 11:49:13;;;;;;;5.88;1.20;;;19.50;98.20;;;;;;5021952;28;20375;-45
2022/05/25 11:51:58;;;;;;;6.30;1.10;;;19.60;98.60;;;;;;5023450;28;20482;-45
2022/05/25 11:54:33;;;;;;;3.55;1.05;;;19.60;99.40;;;;;;5006006;28;20061;-45
2022/05/25 11:57:15;;;;;;;6.00;0.95;;;19.80;99.00;;;;;;5024584;28;20488;-44
2022/05/25 11:59:44;;;;;;;11.65;1.50;;;19.90;98.60;;;;;;5024727;28;20060;-47
2022/05/25 12:02:26;;;;;;;7.68;1.23;;;19.70;98.10;;;;;;5024251;28;20053;-44
2022/05/25 12:05:14;;;;;;;6.60;1.05;;;19.80;98.30;;;;;;5022381;28;20056;-47
2022/05/25 12:08:02;;;;;;;4.75;1.30;;;19.80;98.40;;;;;;5025328;28;20092;-48
2022/05/25 12:10:33;;;;;;;4.53;0.90;;;19.50;97.70;;;;;;5027224;28;20084;-47
2022/05/25 12:13:33;;;;;;;4.07;1.23;;;19.50;97.80;;;;;;5015510;28;20578;-49
2022/05/25 12:16:20;;;;;;;3.42;1.33;;;19.50;99.10;;;;;;5034685;28;20060;-46
2022/05/25 12:19:11;;;;;;;5.32;1.75;;;19.50;98.30;;;;;;5043750;28;20056;-47
2022/05/25 12:21:48;;;;;;;5.82;1.20;;;19.50;98.10;;;;;;5043903;28;20499;-47
2022/05/25 12:24:18;;;;;;;4.78;1.38;;;19.50;98.00;;;;;;5038847;28;20131;-45
2022/05/25 12:26:44;;;;;;;3.63;1.40;;;19.50;98.00;;;;;;5042121;28;20447;-47
2022/05/25 12:29:29;;;;;;;7.47;1.25;;;19.40;98.80;;;;;;5043869;28;20084;-47
2022/05/25 12:31:56;;;;;;;4.63;1.20;;;19.40;98.00;;;;;;5042886;28;20057;-45
2022/05/25 12:34:40;;;;;;;3.25;1.33;;;19.40;97.30;;;;;;5041772;28;20415;-45
2022/05/25 12:37:09;;;;;;;3.95;1.08;;;19.40;98.20;;;;;;5043284;28;20084;-47
2022/05/25 12:39:46;;;;;;;4.47;1.50;;;19.60;98.40;;;;;;5043416;28;20546;-47
2022/05/25 12:42:25;;;;;;;8.57;1.65;;;19.60;97.60;;;;;;5043498;28;20048;-46
2022/05/25 12:50:54;;;;;;;5.40;1.35;;;19.40;98.30;;;;;;5041056;28;20045;-46
2022/05/25 12:53:39;;;;;;;3.83;1.10;;;19.20;98.30;;;;;;5034982;28;20045;-47
2022/05/25 12:56:23;;;;;;;3.25;1.00;;;19.20;98.00;;;;;;5043033;28;20075;-46
2022/05/25 12:58:52;;;;;;;3.50;1.05;;;19.20;98.30;;;;;;5042376;28;20127;-46
2022/05/25 13:01:36;;;;;;;5.43;1.27;;;19.10;98.10;;;;;;5040581;28;20045;-45
2022/05/25 13:04:36;;;;;;;5.28;1.15;;;18.90;97.90;;;;;;5042081;28;20530;-45
2022/05/25 13:07:02;;;;;;;4.03;1.35;;;18.90;98.10;;;;;;4948376;28;20549;-45
2022/05/25 13:09:41;;;;;;;3.65;1.15;;;18.90;98.50;;;;;;4961190;28;20141;-47
2022/05/25 13:12:36;;;;;;;5.68;1.00;;;18.90;98.70;;;;;;4945779;28;20077;-45
2022/05/25 13:15:03;;;;;;;7.22;1.10;;;18.80;98.90;;;;;;4957102;28;20418;-45
2022/05/25 13:17:53;;;;;;;7.32;1.00;;;18.70;99.00;;;;;;4940911;29;20051;-45
2022/05/25 13:20:28;;;;;;;5.82;1.58;;;18.80;99.60;;;;;;4942108;29;20384;-47
2022/05/25 13:23:02;;;;;;;6.30;1.10;;;18.90;99.60;;;;;;4942197;29;20059;-46
2022/05/25 13:25:49;;;;;;;7.47;1.30;;;18.80;99.20;;;;;;4926038;29;20090;-46
2022/05/25 13:28:28;;;;;;;2.80;0.80;;;18.90;99.10;;;;;;4925650;29;20043;-46
2022/05/25 13:31:05;;;;;;;7.88;1.15;;;19.00;99.60;;;;;;4945725;29;20107;-47
2022/05/25 13:33:43;;;;;;;6.03;1.25;;;19.10;99.60;;;;;;4942147;29;20051;-44
2022/05/25 13:36:16;;;;;;;3.90;1.50;;;19.00;98.60;;;;;;4925676;29;20063;-47